Terminal Aerodrome Forecast
Issued by NWS

Home | Current Version | Previous Version | Graphics & Text | Print | Product List | Glossary On
Versions: 1 2 3 4 5 6 7 8 9 10 11 12 13 14
000
FTUS43 KIWX 212300
TAFSBN
TAF
KSBN 212338Z 2200/2224 25006KT 5SM -SHRA BKN050
     FM220400 28010KT P6SM BKN050
     FM220600 31012KT P6SM BKN035
     FM221300 32017G24KT P6SM SKC=

USA.gov is the U.S. government's official web portal to all federal, state and local government web resources and services.